Time;durP1;ratioP1;P1;durP2;ratioP2;P2;SDS_P1;SDS_P2;PMS_P1;PMS_P2;Temp;Humidity;BMP_temperature;BMP_pressure;BME280_temperature;BME280_humidity;BME280_pressure;Samples;Min_cycle;Max_cycle;Signal;HPM_P1;HPM_P2
2021/10/02 08:35:11;;;;;;;2.17;1.60;;;15.90;99.90;;;;;;4879035;29;20279;-80
2021/10/02 08:37:38;;;;;;;2.53;1.40;;;15.80;99.90;;;;;;4881394;29;20222;-76
2021/10/02 08:40:07;;;;;;;2.97;1.33;;;15.80;99.90;;;;;;4880798;29;20250;-83
2021/10/02 08:42:38;;;;;;;7.77;1.67;;;16.00;99.90;;;;;;4881629;29;20574;-80
2021/10/02 08:45:06;;;;;;;4.57;1.47;;;16.30;99.90;;;;;;4876857;29;20211;-78
2021/10/02 08:47:36;;;;;;;4.10;1.43;;;16.40;99.90;;;;;;4874013;29;20616;-72
2021/10/02 08:50:05;;;;;;;2.50;1.40;;;16.60;99.90;;;;;;4881404;29;20283;-78
2021/10/02 08:52:34;;;;;;;5.00;1.30;;;16.60;99.90;;;;;;4881642;29;20582;-72
2021/10/02 08:55:03;;;;;;;3.23;1.20;;;16.60;99.90;;;;;;4880289;29;20218;-72
2021/10/02 08:57:33;;;;;;;1.93;1.27;;;16.60;99.90;;;;;;4880537;29;20212;-75
2021/10/02 09:00:01;;;;;;;3.07;1.40;;;16.60;99.90;;;;;;4880468;29;20258;-71
2021/10/02 09:02:28;;;;;;;3.10;1.40;;;16.60;99.90;;;;;;4880864;29;20222;-73
2021/10/02 09:04:56;;;;;;;2.83;0.90;;;16.70;99.90;;;;;;4881218;29;20214;-75
2021/10/02 09:07:23;;;;;;;3.27;1.93;;;16.70;99.90;;;;;;4880392;29;20241;-77
2021/10/02 09:09:54;;;;;;;3.67;0.90;;;16.80;99.90;;;;;;4880516;29;20230;-75
2021/10/02 09:12:21;;;;;;;3.87;1.07;;;16.60;99.90;;;;;;4879821;29;20215;-75
2021/10/02 09:14:50;;;;;;;1.17;0.90;;;16.60;99.90;;;;;;4880508;29;20238;-75
2021/10/02 09:17:17;;;;;;;3.20;0.90;;;16.50;99.90;;;;;;4880795;29;20215;-71
2021/10/02 09:19:44;;;;;;;2.03;0.97;;;16.60;99.90;;;;;;4879756;29;20235;-71
2021/10/02 09:22:13;;;;;;;1.93;0.90;;;16.50;99.90;;;;;;4880196;29;20274;-76
2021/10/02 09:24:44;;;;;;;2.20;0.90;;;16.50;99.90;;;;;;4880096;29;20267;-75
2021/10/02 09:27:16;;;;;;;2.60;0.93;;;16.60;99.90;;;;;;4879820;29;20250;-73
2021/10/02 09:29:45;;;;;;;2.07;1.00;;;16.70;99.90;;;;;;4879993;29;20211;-75
2021/10/02 09:32:14;;;;;;;1.50;0.80;;;16.80;99.90;;;;;;4879516;29;20208;-74
2021/10/02 09:34:46;;;;;;;3.03;1.00;;;16.80;99.90;;;;;;4879345;29;20226;-76
2021/10/02 09:37:21;;;;;;;2.63;0.90;;;16.90;99.90;;;;;;4880172;29;20219;-74
2021/10/02 09:39:50;;;;;;;1.27;0.70;;;17.10;99.90;;;;;;4879525;29;20262;-73
2021/10/02 09:42:27;;;;;;;1.67;1.10;;;17.10;99.90;;;;;;4879532;29;20633;-75
2021/10/02 09:44:58;;;;;;;3.07;1.00;;;17.30;99.90;;;;;;4879429;29;20204;-75
2021/10/02 09:47:24;;;;;;;2.80;0.97;;;17.30;99.90;;;;;;4879286;29;20267;-75
2021/10/02 09:49:53;;;;;;;3.20;1.17;;;17.50;99.90;;;;;;4879048;29;20714;-73
2021/10/02 09:52:38;;;;;;;1.67;0.80;;;17.60;99.90;;;;;;4879642;29;20211;-74
2021/10/02 09:55:17;;;;;;;4.33;0.70;;;17.60;99.90;;;;;;4879054;29;20241;-74
2021/10/02 09:57:47;;;;;;;1.27;0.60;;;17.70;99.90;;;;;;4879044;29;20217;-78
2021/10/02 10:00:16;;;;;;;1.13;0.60;;;17.70;99.90;;;;;;4878727;29;20239;-75
2021/10/02 10:02:44;;;;;;;3.17;0.70;;;17.80;99.90;;;;;;4879825;29;20571;-76
2021/10/02 10:05:13;;;;;;;2.00;0.50;;;17.50;99.90;;;;;;4879054;29;20218;-76
2021/10/02 10:07:40;;;;;;;1.40;0.50;;;17.30;99.90;;;;;;4879510;29;20556;-74
2021/10/02 10:10:10;;;;;;;2.50;0.60;;;17.20;99.90;;;;;;4879351;29;20745;-77
2021/10/02 10:12:38;;;;;;;1.13;0.50;;;17.00;99.90;;;;;;4879503;29;20222;-76
2021/10/02 10:15:08;;;;;;;1.00;0.50;;;17.20;99.90;;;;;;4880540;29;20207;-76
2021/10/02 10:17:35;;;;;;;1.33;0.60;;;17.30;99.90;;;;;;4880069;29;20211;-74
2021/10/02 10:20:08;;;;;;;1.40;0.60;;;17.50;99.90;;;;;;4879380;29;20249;-73
2021/10/02 10:22:35;;;;;;;0.50;0.40;;;17.60;99.90;;;;;;4880386;29;20562;-75
2021/10/02 10:25:06;;;;;;;1.80;0.70;;;17.70;99.90;;;;;;4882062;29;20225;-74
2021/10/02 10:27:36;;;;;;;1.70;0.63;;;17.70;99.90;;;;;;4884123;29;20214;-75
2021/10/02 10:30:11;;;;;;;1.53;0.50;;;17.60;99.90;;;;;;4883799;29;20602;-75
2021/10/02 10:32:39;;;;;;;1.27;0.57;;;17.70;99.90;;;;;;4883471;29;21338;-76
2021/10/02 10:35:07;;;;;;;1.63;0.50;;;17.60;99.90;;;;;;4881592;29;20995;-76
2021/10/02 10:37:34;;;;;;;2.23;0.47;;;17.60;99.90;;;;;;4864155;29;20211;-76
2021/10/02 10:40:01;;;;;;;1.00;0.50;;;17.50;99.90;;;;;;4873371;29;20249;-75
2021/10/02 10:42:30;;;;;;;1.80;0.57;;;17.40;99.90;;;;;;4883251;29;20297;-76
2021/10/02 10:44:57;;;;;;;0.50;0.30;;;17.50;99.90;;;;;;4882628;29;20662;-75
2021/10/02 10:47:26;;;;;;;1.43;0.60;;;17.60;99.90;;;;;;4882848;29;21524;-76
2021/10/02 10:49:53;;;;;;;1.10;0.53;;;17.70;99.90;;;;;;4882292;29;20343;-75
2021/10/02 10:52:20;;;;;;;1.20;0.50;;;17.60;99.90;;;;;;4882838;29;20229;-73
2021/10/02 10:54:51;;;;;;;2.30;0.70;;;17.70;99.90;;;;;;4882440;29;20263;-74
2021/10/02 10:57:37;;;;;;;1.13;0.60;;;17.80;99.90;;;;;;4882566;29;20222;-75
2021/10/02 11:00:07;;;;;;;0.80;0.43;;;17.80;99.90;;;;;;4882093;29;20242;-75
2021/10/02 11:02:52;;;;;;;1.80;0.77;;;17.90;99.90;;;;;;4882156;29;20222;-75
2021/10/02 11:05:48;;;;;;;1.07;0.60;;;18.10;99.90;;;;;;4882136;29;20577;-74
2021/10/02 11:08:19;;;;;;;0.60;0.40;;;18.20;99.90;;;;;;4882416;29;20672;-72
2021/10/02 11:10:49;;;;;;;1.33;0.73;;;18.30;99.90;;;;;;4882347;29;20238;-76
2021/10/02 11:13:17;;;;;;;0.70;0.60;;;18.40;99.90;;;;;;4881963;29;20680;-76
2021/10/02 11:15:46;;;;;;;0.83;0.40;;;18.40;99.90;;;;;;4881939;29;20208;-75
2021/10/02 11:18:43;;;;;;;1.20;0.60;;;18.30;99.90;;;;;;4882354;29;20207;-73
2021/10/02 11:21:11;;;;;;;0.87;0.50;;;18.30;99.90;;;;;;4881978;29;20247;-75
2021/10/02 11:24:16;;;;;;;2.20;0.60;;;18.40;99.90;;;;;;4881966;29;20213;-74
2021/10/02 11:26:49;;;;;;;1.70;0.73;;;18.30;99.90;;;;;;4881918;29;20754;-75
2021/10/02 11:29:27;;;;;;;2.10;0.77;;;18.30;99.90;;;;;;4882024;29;20218;-74
2021/10/02 11:32:23;;;;;;;1.73;0.50;;;18.30;99.90;;;;;;4881525;29;20222;-75
2021/10/02 11:35:19;;;;;;;1.73;0.80;;;18.40;99.90;;;;;;4881254;29;20208;-75
2021/10/02 11:37:53;;;;;;;0.90;0.50;;;18.50;99.90;;;;;;4873731;29;20207;-75
2021/10/02 11:40:47;;;;;;;1.17;0.60;;;18.50;99.90;;;;;;4881115;29;20239;-75
2021/10/02 11:43:31;;;;;;;2.72;0.47;;;18.70;99.90;;;;;;4881521;29;20222;-73
2021/10/02 11:46:01;;;;;;;1.02;0.60;;;18.60;99.90;;;;;;4881304;29;20211;-75
2021/10/02 11:48:40;;;;;;;3.10;0.73;;;18.30;99.90;;;;;;4881373;29;20215;-76
2021/10/02 11:51:21;;;;;;;0.80;0.50;;;18.20;99.90;;;;;;4881283;29;20710;-76
2021/10/02 11:53:49;;;;;;;1.00;0.50;;;18.30;99.90;;;;;;4881658;29;20218;-75
2021/10/02 11:56:22;;;;;;;1.10;0.50;;;18.40;99.90;;;;;;4888579;29;20210;-75
2021/10/02 11:58:53;;;;;;;0.70;0.40;;;18.60;99.90;;;;;;4882383;29;20211;-74
2021/10/02 12:01:24;;;;;;;0.60;0.50;;;18.80;99.90;;;;;;4887581;29;20242;-74
2021/10/02 12:04:03;;;;;;;2.80;0.80;;;18.70;99.90;;;;;;4889789;29;20420;-74
2021/10/02 12:06:33;;;;;;;1.83;0.40;;;18.70;99.90;;;;;;4871561;29;20226;-74
2021/10/02 12:09:01;;;;;;;0.98;0.40;;;18.90;99.90;;;;;;4868280;29;20243;-74
2021/10/02 12:11:29;;;;;;;0.83;0.40;;;18.90;99.90;;;;;;4871575;29;20295;-75
2021/10/02 12:13:57;;;;;;;2.33;0.40;;;18.70;99.90;;;;;;4867230;29;20211;-74
2021/10/02 12:16:27;;;;;;;0.80;0.43;;;18.50;99.90;;;;;;4882787;29;20689;-74
2021/10/02 12:18:57;;;;;;;2.97;0.50;;;18.30;99.90;;;;;;4882628;29;20243;-75
2021/10/02 12:21:41;;;;;;;1.23;0.40;;;18.30;99.90;;;;;;4882655;29;20243;-75
2021/10/02 12:24:15;;;;;;;1.37;0.40;;;18.20;99.90;;;;;;4881499;29;20246;-75
2021/10/02 12:26:58;;;;;;;2.30;0.50;;;18.10;99.90;;;;;;4882323;29;20219;-74
2021/10/02 12:29:27;;;;;;;0.63;0.40;;;17.80;99.90;;;;;;4883960;29;20310;-74
2021/10/02 12:32:00;;;;;;;1.47;0.70;;;17.90;99.90;;;;;;4885409;29;20280;-75
2021/10/02 12:34:32;;;;;;;1.10;0.37;;;18.10;99.90;;;;;;4882276;29;20219;-74
2021/10/02 12:37:06;;;;;;;1.63;0.47;;;18.00;99.90;;;;;;4881731;29;20215;-74
2021/10/02 12:39:38;;;;;;;2.20;0.60;;;17.90;99.90;;;;;;4882365;29;20267;-74
2021/10/02 12:42:07;;;;;;;1.00;0.40;;;17.90;99.90;;;;;;4882451;29;20754;-75
2021/10/02 12:44:36;;;;;;;0.70;0.33;;;18.00;99.90;;;;;;4882915;29;20208;-81
2021/10/02 12:47:07;;;;;;;5.20;0.60;;;18.20;99.90;;;;;;4885373;29;20215;-78
2021/10/02 12:49:55;;;;;;;2.40;0.70;;;18.20;99.90;;;;;;4891044;29;20219;-77
2021/10/02 12:52:25;;;;;;;2.60;0.60;;;18.40;99.90;;;;;;4893193;29;20266;-78
2021/10/02 12:54:54;;;;;;;3.60;0.53;;;18.40;99.90;;;;;;4910322;29;20211;-86
2021/10/02 12:57:26;;;;;;;2.93;0.50;;;18.60;99.90;;;;;;4897448;29;20251;-75
2021/10/02 13:00:04;;;;;;;2.05;0.60;;;18.80;99.90;;;;;;4915122;29;20244;-79
2021/10/02 13:02:32;;;;;;;2.83;0.47;;;18.90;99.90;;;;;;4914363;29;20225;-76
2021/10/02 13:05:01;;;;;;;2.55;0.40;;;18.90;99.90;;;;;;4915808;29;20285;-78
2021/10/02 13:07:35;;;;;;;1.17;0.40;;;18.90;99.90;;;;;;4912591;29;20245;-78
2021/10/02 13:10:31;;;;;;;2.13;0.30;;;18.80;99.90;;;;;;4906913;29;20223;-75
2021/10/02 13:13:01;;;;;;;1.70;0.30;;;18.70;99.90;;;;;;4888939;29;20719;-74
2021/10/02 13:15:44;;;;;;;1.53;0.40;;;18.60;99.90;;;;;;4895779;29;20282;-82
2021/10/02 13:18:13;;;;;;;0.57;0.40;;;18.40;99.90;;;;;;4897599;29;20207;-71
2021/10/02 13:20:52;;;;;;;2.97;0.55;;;18.30;99.90;;;;;;4895286;29;20239;-85
2021/10/02 13:23:33;;;;;;;2.00;0.40;;;18.40;99.90;;;;;;4894798;29;20203;-73
2021/10/02 13:26:06;;;;;;;1.73;0.30;;;18.30;99.90;;;;;;4895722;29;20226;-79
2021/10/02 13:28:43;;;;;;;0.67;0.40;;;18.20;99.90;;;;;;4893862;29;20235;-75
2021/10/02 13:31:20;;;;;;;1.73;0.40;;;18.10;99.90;;;;;;4894769;29;20313;-75
2021/10/02 13:33:48;;;;;;;2.67;0.50;;;17.90;99.90;;;;;;4892657;29;20215;-77
2021/10/02 13:36:24;;;;;;;1.37;0.40;;;17.90;99.90;;;;;;4892170;29;20219;-76
2021/10/02 13:38:52;;;;;;;0.50;0.30;;;17.90;99.90;;;;;;4891374;29;20283;-79
2021/10/02 13:41:19;;;;;;;1.90;0.70;;;18.00;99.90;;;;;;4891699;29;20345;-74
2021/10/02 13:43:55;;;;;;;2.83;0.50;;;18.00;99.90;;;;;;4893230;29;20211;-74
2021/10/02 13:46:29;;;;;;;6.00;0.70;;;18.00;99.90;;;;;;4884746;29;20217;-77
2021/10/02 13:49:00;;;;;;;2.73;0.43;;;18.10;99.90;;;;;;4881267;29;20620;-75
2021/10/02 13:51:27;;;;;;;1.00;0.40;;;18.10;99.90;;;;;;4881564;29;20254;-78
2021/10/02 13:53:57;;;;;;;3.33;0.60;;;18.20;99.90;;;;;;4882246;29;20211;-76
2021/10/02 13:56:33;;;;;;;1.13;0.60;;;18.30;99.90;;;;;;4862189;29;20216;-76
2021/10/02 13:58:59;;;;;;;3.90;1.40;;;18.30;99.90;;;;;;4861619;29;20216;-71
2021/10/02 14:01:27;;;;;;;2.00;0.70;;;18.20;99.90;;;;;;4861656;29;20275;-71
2021/10/02 14:03:54;;;;;;;2.43;0.80;;;18.40;99.90;;;;;;4861428;29;20215;-73
2021/10/02 14:06:21;;;;;;;1.33;0.50;;;18.30;99.90;;;;;;4862284;29;20632;-73
2021/10/02 14:08:48;;;;;;;2.23;0.47;;;18.30;99.90;;;;;;4861601;29;20254;-71
2021/10/02 14:11:17;;;;;;;0.77;0.40;;;18.30;99.90;;;;;;4861427;29;20334;-70
2021/10/02 14:13:47;;;;;;;2.53;0.53;;;18.10;99.90;;;;;;4861730;29;20240;-73
2021/10/02 14:16:17;;;;;;;1.07;0.57;;;18.00;99.90;;;;;;4877909;29;20226;-73
2021/10/02 14:18:44;;;;;;;1.40;0.40;;;17.80;99.90;;;;;;4878819;29;20675;-72
2021/10/02 14:21:11;;;;;;;2.73;0.70;;;17.60;99.90;;;;;;4878925;29;20238;-77
2021/10/02 14:23:38;;;;;;;1.33;0.40;;;17.80;99.90;;;;;;4879019;29;20218;-79
2021/10/02 14:26:04;;;;;;;1.17;0.37;;;17.80;99.90;;;;;;4878789;29;20211;-77
2021/10/02 14:28:32;;;;;;;2.30;0.40;;;17.90;99.90;;;;;;4893174;29;20210;-77
2021/10/02 14:31:00;;;;;;;1.73;0.47;;;17.90;99.90;;;;;;4898078;29;20226;-76
2021/10/02 14:33:27;;;;;;;1.37;0.50;;;17.80;99.90;;;;;;4897726;29;20218;-84
2021/10/02 14:35:54;;;;;;;2.47;0.50;;;17.70;99.90;;;;;;4882188;29;20211;-75
2021/10/02 14:38:21;;;;;;;3.73;0.60;;;17.60;99.90;;;;;;4879211;29;20213;-74
2021/10/02 14:40:48;;;;;;;3.20;0.53;;;17.60;99.90;;;;;;4878654;29;20227;-74
2021/10/02 14:43:15;;;;;;;2.63;0.47;;;17.70;99.90;;;;;;4878449;29;20207;-88
2021/10/02 14:45:43;;;;;;;1.50;0.40;;;17.60;99.90;;;;;;4878371;29;20679;-77
2021/10/02 14:48:10;;;;;;;3.20;0.50;;;17.60;99.90;;;;;;4878461;29;20586;-80
2021/10/02 14:50:39;;;;;;;1.50;0.50;;;17.50;99.90;;;;;;4878405;29;20237;-71
2021/10/02 14:53:09;;;;;;;1.80;0.30;;;17.40;99.90;;;;;;4878747;29;20266;-76
2021/10/02 14:55:36;;;;;;;0.50;0.40;;;17.30;99.90;;;;;;4878419;29;20213;-75
2021/10/02 14:58:05;;;;;;;2.20;0.50;;;17.20;99.90;;;;;;4878783;29;20214;-76
2021/10/02 15:00:33;;;;;;;1.50;0.40;;;17.10;99.90;;;;;;4878792;29;20235;-73
2021/10/02 15:03:01;;;;;;;2.73;0.40;;;17.10;99.90;;;;;;4878764;29;20273;-75
2021/10/02 15:05:28;;;;;;;1.47;0.50;;;17.10;99.90;;;;;;4878407;29;20222;-71
2021/10/02 15:07:55;;;;;;;0.87;0.50;;;17.20;99.90;;;;;;4878648;29;20724;-73
2021/10/02 15:10:23;;;;;;;2.30;0.40;;;17.30;99.90;;;;;;4879385;29;20253;-82
2021/10/02 15:12:51;;;;;;;1.33;0.40;;;17.30;99.90;;;;;;4881701;29;20218;-72
2021/10/02 15:15:18;;;;;;;1.47;0.50;;;17.40;99.90;;;;;;4882100;29;20540;-78
2021/10/02 15:17:45;;;;;;;3.43;0.60;;;17.50;99.90;;;;;;4882341;29;20215;-81
2021/10/02 15:20:13;;;;;;;1.70;0.60;;;17.40;99.90;;;;;;4882266;29;20325;-81
2021/10/02 15:22:43;;;;;;;3.43;0.63;;;17.30;99.90;;;;;;4881867;29;20231;-73
2021/10/02 15:25:12;;;;;;;2.57;0.60;;;17.30;99.90;;;;;;4882673;29;20211;-72
